St. Paul, Alberta

Past 24 Hour Conditions

Date / Time
(MDT)
Conditions Temp
(°F)
Humidity
(%)
Dew Point
(°F)
Wind
(mph)
Pressure
(inches)
Vis
(mi)
Wind Chill
31 October 2014
4:00 N/A 33   88 29 SE 15 N/A N/A *
3:00 N/A 32 89 29 SE 18 N/A N/A *
2:00 N/A 32 89 29 ESE 19 N/A N/A 20
1:00 N/A 31 89 28 SE 21 N/A N/A 18
00:00 N/A 30   89 27 ESE 16 N/A N/A 19
30 October 2014
23:00 N/A 30   89 27 ESE 14 N/A N/A 19
22:00 N/A 30   88 26 SE 22 N/A N/A 16
21:00 N/A 30   87 27 SE 23 N/A N/A 17
20:00 N/A 30   85 26 SE 23 N/A N/A 17
19:00 N/A 31 85 26 ESE 17 N/A N/A 19
18:00 N/A 31 87 27 ESE 15 N/A N/A 20
17:00 N/A 32 85 28 SE 16 N/A N/A 21
16:00 N/A 32 84 28 SE 15 N/A N/A 22
15:00 N/A 32 85 28 SE 21 N/A N/A 19
14:00 N/A 31 86 28 SE 18 N/A N/A 19
13:00 N/A 31 90 29 SSE 17 N/A N/A 20
12:00 N/A 32 91 29 SE 14 N/A N/A 22
11:00 N/A 31 91 29 SE 13 N/A N/A 21
10:00 N/A 31 93 29 SE 11 N/A N/A 21
9:00 N/A 30   94 29 SE 14 N/A N/A 20
8:00 N/A 30   92 28 SE 11 N/A N/A 21
7:00 N/A 30   91 28 SE 9 N/A N/A 22
6:00 N/A 30   90 28 SE 9 N/A N/A 22
5:00 N/A 31 89 28 ESE 9 N/A N/A 23
4:00 N/A 31 89 28 SE 10 N/A N/A 22
N/A Not available
↑ Highest temperature
↓ Lowest temperature
* Value not significant.

If you require additional historical weather information, please visit Climate Data Online.

Date modified: